sensor_id;sensor_type;location;lat;lon;timestamp;P1;durP1;ratioP1;P2;durP2;ratioP2
5688;SDS011;2869;50.432;8.680;2023-04-24T00:00:02;2.87;;;2.60;;
5688;SDS011;2869;50.432;8.680;2023-04-24T00:02:31;5.27;;;2.43;;
5688;SDS011;2869;50.432;8.680;2023-04-24T00:04:58;2.67;;;2.47;;
5688;SDS011;2869;50.432;8.680;2023-04-24T00:07:29;3.30;;;2.50;;
5688;SDS011;2869;50.432;8.680;2023-04-24T00:09:55;2.90;;;2.60;;
5688;SDS011;2869;50.432;8.680;2023-04-24T00:12:22;16.27;;;3.20;;
5688;SDS011;2869;50.432;8.680;2023-04-24T00:14:49;3.30;;;2.93;;
5688;SDS011;2869;50.432;8.680;2023-04-24T00:17:16;2.93;;;2.73;;
5688;SDS011;2869;50.432;8.680;2023-04-24T00:19:44;4.43;;;2.80;;
5688;SDS011;2869;50.432;8.680;2023-04-24T00:22:11;3.87;;;2.90;;
5688;SDS011;2869;50.432;8.680;2023-04-24T00:24:40;4.70;;;2.50;;
5688;SDS011;2869;50.432;8.680;2023-04-24T00:27:07;3.87;;;2.57;;
5688;SDS011;2869;50.432;8.680;2023-04-24T00:29:34;2.53;;;2.33;;
5688;SDS011;2869;50.432;8.680;2023-04-24T00:32:00;11.03;;;2.57;;
5688;SDS011;2869;50.432;8.680;2023-04-24T00:34:27;2.10;;;2.00;;
5688;SDS011;2869;50.432;8.680;2023-04-24T00:36:53;2.00;;;1.90;;
5688;SDS011;2869;50.432;8.680;2023-04-24T00:39:20;3.43;;;2.30;;
5688;SDS011;2869;50.432;8.680;2023-04-24T00:41:49;2.77;;;2.50;;
5688;SDS011;2869;50.432;8.680;2023-04-24T00:44:17;3.47;;;2.50;;
5688;SDS011;2869;50.432;8.680;2023-04-24T00:46:44;3.30;;;2.60;;
5688;SDS011;2869;50.432;8.680;2023-04-24T00:49:11;3.83;;;3.20;;
5688;SDS011;2869;50.432;8.680;2023-04-24T00:51:39;7.17;;;2.90;;
5688;SDS011;2869;50.432;8.680;2023-04-24T00:54:10;2.77;;;2.57;;
5688;SDS011;2869;50.432;8.680;2023-04-24T00:56:37;5.00;;;2.67;;
5688;SDS011;2869;50.432;8.680;2023-04-24T00:59:05;4.93;;;2.90;;
5688;SDS011;2869;50.432;8.680;2023-04-24T01:01:32;5.63;;;2.80;;
5688;SDS011;2869;50.432;8.680;2023-04-24T01:03:59;4.10;;;2.40;;
5688;SDS011;2869;50.432;8.680;2023-04-24T01:06:27;2.73;;;2.53;;
5688;SDS011;2869;50.432;8.680;2023-04-24T01:08:56;2.87;;;2.60;;
5688;SDS011;2869;50.432;8.680;2023-04-24T01:11:23;9.10;;;3.00;;
5688;SDS011;2869;50.432;8.680;2023-04-24T01:13:50;2.77;;;2.50;;
5688;SDS011;2869;50.432;8.680;2023-04-24T01:16:18;2.60;;;2.50;;
5688;SDS011;2869;50.432;8.680;2023-04-24T01:18:45;3.90;;;3.20;;
5688;SDS011;2869;50.432;8.680;2023-04-24T01:21:13;2.90;;;2.70;;
5688;SDS011;2869;50.432;8.680;2023-04-24T01:23:42;3.03;;;2.83;;
5688;SDS011;2869;50.432;8.680;2023-04-24T01:26:09;2.50;;;2.30;;
5688;SDS011;2869;50.432;8.680;2023-04-24T01:28:36;3.80;;;2.80;;
5688;SDS011;2869;50.432;8.680;2023-04-24T01:31:03;4.93;;;2.60;;
5688;SDS011;2869;50.432;8.680;2023-04-24T01:33:30;2.70;;;2.50;;
5688;SDS011;2869;50.432;8.680;2023-04-24T01:35:57;5.13;;;3.17;;
5688;SDS011;2869;50.432;8.680;2023-04-24T01:38:24;3.27;;;2.97;;
5688;SDS011;2869;50.432;8.680;2023-04-24T01:40:52;3.10;;;2.90;;
5688;SDS011;2869;50.432;8.680;2023-04-24T01:43:19;2.97;;;2.53;;
5688;SDS011;2869;50.432;8.680;2023-04-24T01:45:46;2.93;;;2.73;;
5688;SDS011;2869;50.432;8.680;2023-04-24T01:48:13;3.03;;;2.73;;
5688;SDS011;2869;50.432;8.680;2023-04-24T01:50:39;3.17;;;2.97;;
5688;SDS011;2869;50.432;8.680;2023-04-24T01:53:06;4.03;;;3.63;;
5688;SDS011;2869;50.432;8.680;2023-04-24T01:55:33;6.00;;;3.90;;
5688;SDS011;2869;50.432;8.680;2023-04-24T01:58:01;7.00;;;4.00;;
5688;SDS011;2869;50.432;8.680;2023-04-24T02:00:28;4.70;;;4.17;;
5688;SDS011;2869;50.432;8.680;2023-04-24T02:02:55;4.53;;;3.70;;
5688;SDS011;2869;50.432;8.680;2023-04-24T02:05:21;4.97;;;4.37;;
5688;SDS011;2869;50.432;8.680;2023-04-24T02:07:48;5.40;;;4.30;;
5688;SDS011;2869;50.432;8.680;2023-04-24T02:10:15;7.73;;;3.77;;
5688;SDS011;2869;50.432;8.680;2023-04-24T02:12:41;7.03;;;5.13;;
5688;SDS011;2869;50.432;8.680;2023-04-24T02:15:10;5.77;;;5.13;;
5688;SDS011;2869;50.432;8.680;2023-04-24T02:17:37;6.73;;;5.27;;
5688;SDS011;2869;50.432;8.680;2023-04-24T02:20:04;7.40;;;4.60;;
5688;SDS011;2869;50.432;8.680;2023-04-24T02:22:32;6.77;;;5.37;;
5688;SDS011;2869;50.432;8.680;2023-04-24T02:24:59;6.67;;;5.63;;
5688;SDS011;2869;50.432;8.680;2023-04-24T02:27:26;6.67;;;5.47;;
5688;SDS011;2869;50.432;8.680;2023-04-24T02:29:53;8.53;;;5.80;;
5688;SDS011;2869;50.432;8.680;2023-04-24T02:32:21;6.70;;;6.10;;
5688;SDS011;2869;50.432;8.680;2023-04-24T02:34:48;6.90;;;6.00;;
5688;SDS011;2869;50.432;8.680;2023-04-24T02:37:15;6.50;;;5.90;;
5688;SDS011;2869;50.432;8.680;2023-04-24T02:39:41;7.27;;;6.57;;
5688;SDS011;2869;50.432;8.680;2023-04-24T02:42:08;8.40;;;5.97;;
5688;SDS011;2869;50.432;8.680;2023-04-24T02:44:35;5.80;;;5.30;;
5688;SDS011;2869;50.432;8.680;2023-04-24T02:47:02;7.40;;;5.27;;
5688;SDS011;2869;50.432;8.680;2023-04-24T02:49:30;6.10;;;4.70;;
5688;SDS011;2869;50.432;8.680;2023-04-24T02:51:56;6.77;;;5.50;;
5688;SDS011;2869;50.432;8.680;2023-04-24T02:54:23;5.90;;;4.80;;
5688;SDS011;2869;50.432;8.680;2023-04-24T02:56:50;5.37;;;4.87;;
5688;SDS011;2869;50.432;8.680;2023-04-24T02:59:16;6.60;;;4.80;;
5688;SDS011;2869;50.432;8.680;2023-04-24T03:01:43;5.10;;;4.60;;
5688;SDS011;2869;50.432;8.680;2023-04-24T03:04:10;6.03;;;4.17;;
5688;SDS011;2869;50.432;8.680;2023-04-24T03:06:38;5.20;;;4.80;;
5688;SDS011;2869;50.432;8.680;2023-04-24T03:09:04;4.13;;;3.90;;
5688;SDS011;2869;50.432;8.680;2023-04-24T03:11:31;4.07;;;3.83;;
5688;SDS011;2869;50.432;8.680;2023-04-24T03:13:57;7.47;;;4.50;;
5688;SDS011;2869;50.432;8.680;2023-04-24T03:16:24;6.40;;;4.30;;
5688;SDS011;2869;50.432;8.680;2023-04-24T03:18:51;6.90;;;3.93;;
5688;SDS011;2869;50.432;8.680;2023-04-24T03:21:17;4.50;;;4.10;;
5688;SDS011;2869;50.432;8.680;2023-04-24T03:23:45;4.80;;;4.27;;
5688;SDS011;2869;50.432;8.680;2023-04-24T03:26:12;4.80;;;3.90;;
5688;SDS011;2869;50.432;8.680;2023-04-24T03:28:38;3.40;;;3.10;;
5688;SDS011;2869;50.432;8.680;2023-04-24T03:31:05;5.70;;;3.33;;
5688;SDS011;2869;50.432;8.680;2023-04-24T03:33:32;8.77;;;3.90;;
5688;SDS011;2869;50.432;8.680;2023-04-24T03:35:59;3.07;;;2.87;;
5688;SDS011;2869;50.432;8.680;2023-04-24T03:38:25;3.67;;;2.80;;
5688;SDS011;2869;50.432;8.680;2023-04-24T03:40:53;3.20;;;2.90;;
5688;SDS011;2869;50.432;8.680;2023-04-24T03:43:20;3.83;;;2.90;;
5688;SDS011;2869;50.432;8.680;2023-04-24T03:45:46;4.50;;;3.07;;
5688;SDS011;2869;50.432;8.680;2023-04-24T03:48:13;3.07;;;2.87;;
5688;SDS011;2869;50.432;8.680;2023-04-24T03:50:40;5.10;;;2.70;;
5688;SDS011;2869;50.432;8.680;2023-04-24T03:53:07;4.20;;;2.73;;
5688;SDS011;2869;50.432;8.680;2023-04-24T03:55:34;3.20;;;3.00;;
5688;SDS011;2869;50.432;8.680;2023-04-24T03:58:02;3.10;;;2.90;;
5688;SDS011;2869;50.432;8.680;2023-04-24T04:00:28;3.20;;;2.90;;
5688;SDS011;2869;50.432;8.680;2023-04-24T04:02:56;2.60;;;2.50;;
5688;SDS011;2869;50.432;8.680;2023-04-24T04:05:23;2.80;;;2.60;;
5688;SDS011;2869;50.432;8.680;2023-04-24T04:07:49;3.00;;;2.70;;
5688;SDS011;2869;50.432;8.680;2023-04-24T04:10:16;3.27;;;2.97;;
5688;SDS011;2869;50.432;8.680;2023-04-24T04:12:43;3.90;;;3.10;;
5688;SDS011;2869;50.432;8.680;2023-04-24T04:15:11;2.90;;;2.70;;
5688;SDS011;2869;50.432;8.680;2023-04-24T04:17:37;2.60;;;2.40;;
5688;SDS011;2869;50.432;8.680;2023-04-24T04:20:05;4.60;;;3.07;;
5688;SDS011;2869;50.432;8.680;2023-04-24T04:22:34;2.90;;;2.67;;
5688;SDS011;2869;50.432;8.680;2023-04-24T04:25:01;3.10;;;2.90;;
5688;SDS011;2869;50.432;8.680;2023-04-24T04:27:28;2.90;;;2.70;;
5688;SDS011;2869;50.432;8.680;2023-04-24T04:29:56;3.10;;;2.90;;
5688;SDS011;2869;50.432;8.680;2023-04-24T04:32:25;3.27;;;3.00;;
5688;SDS011;2869;50.432;8.680;2023-04-24T04:34:52;2.80;;;2.60;;
5688;SDS011;2869;50.432;8.680;2023-04-24T04:37:19;2.70;;;2.60;;
5688;SDS011;2869;50.432;8.680;2023-04-24T04:39:45;4.70;;;3.30;;
5688;SDS011;2869;50.432;8.680;2023-04-24T04:42:12;3.30;;;3.00;;
5688;SDS011;2869;50.432;8.680;2023-04-24T04:44:40;3.17;;;2.97;;
5688;SDS011;2869;50.432;8.680;2023-04-24T04:47:07;3.90;;;3.00;;
5688;SDS011;2869;50.432;8.680;2023-04-24T04:49:37;2.93;;;2.70;;
5688;SDS011;2869;50.432;8.680;2023-04-24T04:52:03;2.53;;;2.33;;
5688;SDS011;2869;50.432;8.680;2023-04-24T04:54:30;3.00;;;2.80;;
5688;SDS011;2869;50.432;8.680;2023-04-24T04:56:56;3.90;;;3.20;;
5688;SDS011;2869;50.432;8.680;2023-04-24T04:59:23;3.13;;;2.93;;
5688;SDS011;2869;50.432;8.680;2023-04-24T05:01:50;2.90;;;2.70;;
5688;SDS011;2869;50.432;8.680;2023-04-24T05:04:17;3.27;;;3.07;;
5688;SDS011;2869;50.432;8.680;2023-04-24T05:06:45;3.03;;;2.83;;
5688;SDS011;2869;50.432;8.680;2023-04-24T05:09:12;3.70;;;2.80;;
5688;SDS011;2869;50.432;8.680;2023-04-24T05:11:38;4.43;;;2.77;;
5688;SDS011;2869;50.432;8.680;2023-04-24T05:14:05;3.43;;;3.13;;
5688;SDS011;2869;50.432;8.680;2023-04-24T05:16:32;2.63;;;2.43;;
5688;SDS011;2869;50.432;8.680;2023-04-24T05:18:58;2.60;;;2.40;;
5688;SDS011;2869;50.432;8.680;2023-04-24T05:21:25;6.00;;;3.10;;
5688;SDS011;2869;50.432;8.680;2023-04-24T05:23:53;3.90;;;3.00;;
5688;SDS011;2869;50.432;8.680;2023-04-24T05:26:19;4.27;;;3.00;;
5688;SDS011;2869;50.432;8.680;2023-04-24T05:28:47;3.70;;;2.90;;
5688;SDS011;2869;50.432;8.680;2023-04-24T05:31:14;4.03;;;2.70;;
5688;SDS011;2869;50.432;8.680;2023-04-24T05:33:42;4.27;;;2.97;;
5688;SDS011;2869;50.432;8.680;2023-04-24T05:36:09;3.33;;;2.90;;
5688;SDS011;2869;50.432;8.680;2023-04-24T05:38:35;2.83;;;2.63;;
5688;SDS011;2869;50.432;8.680;2023-04-24T05:41:03;3.57;;;2.83;;
5688;SDS011;2869;50.432;8.680;2023-04-24T05:43:30;2.60;;;2.40;;
5688;SDS011;2869;50.432;8.680;2023-04-24T05:45:57;3.20;;;2.90;;
5688;SDS011;2869;50.432;8.680;2023-04-24T05:48:23;3.10;;;2.67;;
5688;SDS011;2869;50.432;8.680;2023-04-24T05:50:51;3.00;;;2.77;;
5688;SDS011;2869;50.432;8.680;2023-04-24T05:53:18;5.63;;;3.33;;
5688;SDS011;2869;50.432;8.680;2023-04-24T05:55:45;3.33;;;3.03;;
5688;SDS011;2869;50.432;8.680;2023-04-24T05:58:13;3.20;;;2.90;;
5688;SDS011;2869;50.432;8.680;2023-04-24T06:00:40;3.37;;;3.10;;
5688;SDS011;2869;50.432;8.680;2023-04-24T06:03:09;5.87;;;3.30;;
5688;SDS011;2869;50.432;8.680;2023-04-24T06:05:36;4.87;;;3.57;;
5688;SDS011;2869;50.432;8.680;2023-04-24T06:08:02;4.53;;;3.27;;
5688;SDS011;2869;50.432;8.680;2023-04-24T06:10:29;4.00;;;3.70;;
5688;SDS011;2869;50.432;8.680;2023-04-24T06:12:56;4.40;;;4.00;;
5688;SDS011;2869;50.432;8.680;2023-04-24T06:15:27;3.60;;;3.00;;
5688;SDS011;2869;50.432;8.680;2023-04-24T06:17:55;4.23;;;3.93;;
5688;SDS011;2869;50.432;8.680;2023-04-24T06:20:22;5.30;;;3.40;;
5688;SDS011;2869;50.432;8.680;2023-04-24T06:22:49;4.70;;;3.73;;
5688;SDS011;2869;50.432;8.680;2023-04-24T06:25:15;4.90;;;3.70;;
5688;SDS011;2869;50.432;8.680;2023-04-24T06:27:42;4.40;;;3.57;;
5688;SDS011;2869;50.432;8.680;2023-04-24T06:30:09;3.67;;;3.37;;
5688;SDS011;2869;50.432;8.680;2023-04-24T06:32:37;4.43;;;4.00;;
5688;SDS011;2869;50.432;8.680;2023-04-24T06:35:05;4.63;;;4.23;;
5688;SDS011;2869;50.432;8.680;2023-04-24T06:37:33;6.83;;;4.43;;
5688;SDS011;2869;50.432;8.680;2023-04-24T06:39:59;4.97;;;4.00;;
5688;SDS011;2869;50.432;8.680;2023-04-24T06:42:26;4.97;;;4.20;;
5688;SDS011;2869;50.432;8.680;2023-04-24T06:44:52;6.67;;;4.00;;
5688;SDS011;2869;50.432;8.680;2023-04-24T06:47:19;5.73;;;3.70;;
5688;SDS011;2869;50.432;8.680;2023-04-24T06:49:47;4.80;;;4.40;;
5688;SDS011;2869;50.432;8.680;2023-04-24T06:52:15;6.43;;;4.43;;
5688;SDS011;2869;50.432;8.680;2023-04-24T06:54:42;5.17;;;4.03;;
5688;SDS011;2869;50.432;8.680;2023-04-24T06:57:09;4.73;;;4.23;;
5688;SDS011;2869;50.432;8.680;2023-04-24T06:59:36;6.07;;;4.03;;
5688;SDS011;2869;50.432;8.680;2023-04-24T07:02:03;10.60;;;5.07;;
5688;SDS011;2869;50.432;8.680;2023-04-24T07:04:30;5.03;;;4.10;;
5688;SDS011;2869;50.432;8.680;2023-04-24T07:06:58;5.27;;;4.77;;
5688;SDS011;2869;50.432;8.680;2023-04-24T07:09:25;4.37;;;3.90;;
5688;SDS011;2869;50.432;8.680;2023-04-24T07:11:52;6.33;;;4.77;;
5688;SDS011;2869;50.432;8.680;2023-04-24T07:14:19;5.33;;;4.80;;
5688;SDS011;2869;50.432;8.680;2023-04-24T07:16:45;5.20;;;4.70;;
5688;SDS011;2869;50.432;8.680;2023-04-24T07:19:12;6.47;;;4.80;;
5688;SDS011;2869;50.432;8.680;2023-04-24T07:21:39;6.70;;;5.30;;
5688;SDS011;2869;50.432;8.680;2023-04-24T07:24:08;6.30;;;4.90;;
5688;SDS011;2869;50.432;8.680;2023-04-24T07:26:36;8.67;;;4.20;;
5688;SDS011;2869;50.432;8.680;2023-04-24T07:29:03;6.20;;;4.70;;
5688;SDS011;2869;50.432;8.680;2023-04-24T07:31:30;18.60;;;4.43;;
5688;SDS011;2869;50.432;8.680;2023-04-24T07:33:57;5.63;;;5.17;;
5688;SDS011;2869;50.432;8.680;2023-04-24T07:36:23;5.30;;;4.80;;
5688;SDS011;2869;50.432;8.680;2023-04-24T07:38:51;4.47;;;4.07;;
5688;SDS011;2869;50.432;8.680;2023-04-24T07:41:19;4.87;;;4.07;;
5688;SDS011;2869;50.432;8.680;2023-04-24T07:43:46;6.87;;;4.90;;
5688;SDS011;2869;50.432;8.680;2023-04-24T07:46:13;4.60;;;4.20;;
5688;SDS011;2869;50.432;8.680;2023-04-24T07:48:39;4.37;;;3.97;;
5688;SDS011;2869;50.432;8.680;2023-04-24T07:51:06;4.77;;;4.37;;
5688;SDS011;2869;50.432;8.680;2023-04-24T07:53:35;4.93;;;3.93;;
5688;SDS011;2869;50.432;8.680;2023-04-24T07:56:01;3.97;;;3.67;;
5688;SDS011;2869;50.432;8.680;2023-04-24T07:58:29;6.00;;;4.03;;
5688;SDS011;2869;50.432;8.680;2023-04-24T08:00:56;5.23;;;4.07;;
5688;SDS011;2869;50.432;8.680;2023-04-24T08:03:22;4.30;;;3.90;;
5688;SDS011;2869;50.432;8.680;2023-04-24T08:05:49;4.40;;;4.00;;
5688;SDS011;2869;50.432;8.680;2023-04-24T08:08:16;5.80;;;3.60;;
5688;SDS011;2869;50.432;8.680;2023-04-24T08:10:43;4.27;;;3.87;;
5688;SDS011;2869;50.432;8.680;2023-04-24T08:13:10;3.03;;;2.80;;
5688;SDS011;2869;50.432;8.680;2023-04-24T08:15:38;4.00;;;3.50;;
5688;SDS011;2869;50.432;8.680;2023-04-24T08:18:05;4.70;;;3.80;;
5688;SDS011;2869;50.432;8.680;2023-04-24T08:20:32;4.80;;;3.60;;
5688;SDS011;2869;50.432;8.680;2023-04-24T08:22:59;4.10;;;3.70;;
5688;SDS011;2869;50.432;8.680;2023-04-24T08:25:26;3.40;;;3.20;;
5688;SDS011;2869;50.432;8.680;2023-04-24T08:27:52;3.80;;;3.50;;
5688;SDS011;2869;50.432;8.680;2023-04-24T08:30:19;3.70;;;3.40;;
5688;SDS011;2869;50.432;8.680;2023-04-24T08:32:47;4.10;;;3.57;;
5688;SDS011;2869;50.432;8.680;2023-04-24T08:35:14;3.43;;;3.13;;
5688;SDS011;2869;50.432;8.680;2023-04-24T08:37:41;3.83;;;3.37;;
5688;SDS011;2869;50.432;8.680;2023-04-24T08:40:10;3.40;;;3.10;;
5688;SDS011;2869;50.432;8.680;2023-04-24T08:42:39;4.20;;;3.50;;
5688;SDS011;2869;50.432;8.680;2023-04-24T08:45:08;4.20;;;2.70;;
5688;SDS011;2869;50.432;8.680;2023-04-24T08:47:36;3.50;;;3.10;;
5688;SDS011;2869;50.432;8.680;2023-04-24T08:50:06;3.50;;;3.20;;
5688;SDS011;2869;50.432;8.680;2023-04-24T08:52:34;4.03;;;3.30;;
5688;SDS011;2869;50.432;8.680;2023-04-24T08:55:01;3.17;;;2.87;;
5688;SDS011;2869;50.432;8.680;2023-04-24T08:57:28;4.00;;;3.50;;
5688;SDS011;2869;50.432;8.680;2023-04-24T08:59:56;4.17;;;3.77;;
5688;SDS011;2869;50.432;8.680;2023-04-24T09:02:24;3.30;;;3.00;;
5688;SDS011;2869;50.432;8.680;2023-04-24T09:04:51;3.60;;;3.30;;
5688;SDS011;2869;50.432;8.680;2023-04-24T09:07:20;3.10;;;2.90;;
5688;SDS011;2869;50.432;8.680;2023-04-24T09:09:50;2.73;;;2.60;;
5688;SDS011;2869;50.432;8.680;2023-04-24T09:12:17;4.20;;;2.90;;
5688;SDS011;2869;50.432;8.680;2023-04-24T09:14:44;3.43;;;3.13;;
5688;SDS011;2869;50.432;8.680;2023-04-24T09:17:11;3.27;;;2.97;;
5688;SDS011;2869;50.432;8.680;2023-04-24T09:19:38;3.20;;;2.90;;
5688;SDS011;2869;50.432;8.680;2023-04-24T09:22:05;3.00;;;2.80;;
5688;SDS011;2869;50.432;8.680;2023-04-24T09:24:34;2.90;;;2.70;;
5688;SDS011;2869;50.432;8.680;2023-04-24T09:27:01;3.47;;;3.03;;
5688;SDS011;2869;50.432;8.680;2023-04-24T09:29:28;3.20;;;3.00;;
5688;SDS011;2869;50.432;8.680;2023-04-24T09:31:57;2.83;;;2.57;;
5688;SDS011;2869;50.432;8.680;2023-04-24T09:34:25;3.00;;;2.80;;
5688;SDS011;2869;50.432;8.680;2023-04-24T09:36:52;3.87;;;2.47;;
5688;SDS011;2869;50.432;8.680;2023-04-24T09:39:20;2.83;;;2.63;;
5688;SDS011;2869;50.432;8.680;2023-04-24T09:41:48;3.60;;;2.37;;
5688;SDS011;2869;50.432;8.680;2023-04-24T09:44:16;4.70;;;2.63;;
5688;SDS011;2869;50.432;8.680;2023-04-24T09:46:45;2.90;;;2.70;;
5688;SDS011;2869;50.432;8.680;2023-04-24T09:49:15;2.63;;;2.40;;
5688;SDS011;2869;50.432;8.680;2023-04-24T09:51:42;3.27;;;3.00;;
5688;SDS011;2869;50.432;8.680;2023-04-24T09:54:16;2.63;;;2.50;;
5688;SDS011;2869;50.432;8.680;2023-04-24T09:56:46;2.80;;;2.60;;
5688;SDS011;2869;50.432;8.680;2023-04-24T09:59:18;2.63;;;2.20;;
5688;SDS011;2869;50.432;8.680;2023-04-24T10:01:45;1.97;;;1.87;;
5688;SDS011;2869;50.432;8.680;2023-04-24T10:04:17;2.17;;;1.97;;
5688;SDS011;2869;50.432;8.680;2023-04-24T10:06:45;2.47;;;2.27;;
5688;SDS011;2869;50.432;8.680;2023-04-24T10:09:13;2.40;;;2.20;;
5688;SDS011;2869;50.432;8.680;2023-04-24T10:11:41;2.07;;;1.97;;
5688;SDS011;2869;50.432;8.680;2023-04-24T10:14:11;1.80;;;1.70;;
5688;SDS011;2869;50.432;8.680;2023-04-24T10:16:39;2.80;;;2.07;;
5688;SDS011;2869;50.432;8.680;2023-04-24T10:19:06;2.43;;;2.23;;
5688;SDS011;2869;50.432;8.680;2023-04-24T10:21:33;3.63;;;2.20;;
5688;SDS011;2869;50.432;8.680;2023-04-24T10:24:01;2.43;;;2.23;;
5688;SDS011;2869;50.432;8.680;2023-04-24T10:26:29;2.03;;;1.93;;
5688;SDS011;2869;50.432;8.680;2023-04-24T10:28:57;2.20;;;2.10;;
5688;SDS011;2869;50.432;8.680;2023-04-24T10:31:25;2.07;;;1.97;;
5688;SDS011;2869;50.432;8.680;2023-04-24T10:33:53;2.10;;;2.00;;
5688;SDS011;2869;50.432;8.680;2023-04-24T10:36:20;1.93;;;1.83;;
5688;SDS011;2869;50.432;8.680;2023-04-24T10:38:51;2.00;;;1.90;;
5688;SDS011;2869;50.432;8.680;2023-04-24T10:41:20;2.63;;;1.93;;
5688;SDS011;2869;50.432;8.680;2023-04-24T10:43:48;1.83;;;1.73;;
5688;SDS011;2869;50.432;8.680;2023-04-24T10:46:31;2.00;;;1.90;;
5688;SDS011;2869;50.432;8.680;2023-04-24T10:48:57;2.03;;;1.93;;
5688;SDS011;2869;50.432;8.680;2023-04-24T10:51:24;1.97;;;1.87;;
5688;SDS011;2869;50.432;8.680;2023-04-24T10:54:21;2.30;;;2.10;;
5688;SDS011;2869;50.432;8.680;2023-04-24T10:56:49;2.27;;;2.07;;
5688;SDS011;2869;50.432;8.680;2023-04-24T10:59:23;2.00;;;1.80;;
5688;SDS011;2869;50.432;8.680;2023-04-24T11:01:54;2.23;;;1.90;;
5688;SDS011;2869;50.432;8.680;2023-04-24T11:04:30;2.20;;;2.10;;
5688;SDS011;2869;50.432;8.680;2023-04-24T11:07:00;1.80;;;1.67;;
5688;SDS011;2869;50.432;8.680;2023-04-24T11:09:27;1.83;;;1.73;;
5688;SDS011;2869;50.432;8.680;2023-04-24T11:12:02;2.10;;;1.90;;
5688;SDS011;2869;50.432;8.680;2023-04-24T11:14:31;1.67;;;1.57;;
5688;SDS011;2869;50.432;8.680;2023-04-24T11:17:30;2.50;;;1.80;;
5688;SDS011;2869;50.432;8.680;2023-04-24T11:20:01;1.93;;;1.83;;
5688;SDS011;2869;50.432;8.680;2023-04-24T11:22:30;1.60;;;1.50;;
5688;SDS011;2869;50.432;8.680;2023-04-24T11:25:00;1.70;;;1.60;;
5688;SDS011;2869;50.432;8.680;2023-04-24T11:27:29;1.70;;;1.60;;
5688;SDS011;2869;50.432;8.680;2023-04-24T11:29:58;1.77;;;1.67;;
5688;SDS011;2869;50.432;8.680;2023-04-24T11:32:26;1.80;;;1.70;;
5688;SDS011;2869;50.432;8.680;2023-04-24T11:34:56;1.57;;;1.47;;
5688;SDS011;2869;50.432;8.680;2023-04-24T11:37:24;1.50;;;1.40;;
5688;SDS011;2869;50.432;8.680;2023-04-24T11:39:53;1.83;;;1.73;;
5688;SDS011;2869;50.432;8.680;2023-04-24T11:42:21;1.80;;;1.70;;
5688;SDS011;2869;50.432;8.680;2023-04-24T11:44:49;1.70;;;1.60;;
5688;SDS011;2869;50.432;8.680;2023-04-24T11:47:17;2.00;;;1.90;;
5688;SDS011;2869;50.432;8.680;2023-04-24T11:49:44;1.60;;;1.50;;
5688;SDS011;2869;50.432;8.680;2023-04-24T11:52:12;4.13;;;1.70;;
5688;SDS011;2869;50.432;8.680;2023-04-24T11:54:46;1.90;;;1.80;;
5688;SDS011;2869;50.432;8.680;2023-04-24T11:57:13;2.07;;;1.97;;
5688;SDS011;2869;50.432;8.680;2023-04-24T11:59:40;2.03;;;1.93;;
5688;SDS011;2869;50.432;8.680;2023-04-24T12:02:06;2.00;;;1.90;;
5688;SDS011;2869;50.432;8.680;2023-04-24T12:04:39;2.50;;;2.30;;
5688;SDS011;2869;50.432;8.680;2023-04-24T12:07:06;2.37;;;2.27;;
5688;SDS011;2869;50.432;8.680;2023-04-24T12:09:41;2.17;;;2.07;;
5688;SDS011;2869;50.432;8.680;2023-04-24T12:12:08;2.50;;;2.30;;
5688;SDS011;2869;50.432;8.680;2023-04-24T12:14:41;2.40;;;2.23;;
5688;SDS011;2869;50.432;8.680;2023-04-24T12:17:09;2.70;;;1.90;;
5688;SDS011;2869;50.432;8.680;2023-04-24T12:19:36;2.20;;;2.10;;
5688;SDS011;2869;50.432;8.680;2023-04-24T12:22:03;2.10;;;1.90;;
5688;SDS011;2869;50.432;8.680;2023-04-24T12:24:31;2.73;;;2.00;;
5688;SDS011;2869;50.432;8.680;2023-04-24T12:26:59;1.80;;;1.70;;
5688;SDS011;2869;50.432;8.680;2023-04-24T12:29:27;1.93;;;1.70;;
5688;SDS011;2869;50.432;8.680;2023-04-24T12:31:53;1.50;;;1.40;;
5688;SDS011;2869;50.432;8.680;2023-04-24T12:34:20;2.00;;;1.57;;
5688;SDS011;2869;50.432;8.680;2023-04-24T12:36:48;5.83;;;1.47;;
5688;SDS011;2869;50.432;8.680;2023-04-24T12:39:15;1.70;;;1.60;;
5688;SDS011;2869;50.432;8.680;2023-04-24T12:41:50;2.07;;;1.87;;
5688;SDS011;2869;50.432;8.680;2023-04-24T12:44:29;3.10;;;1.70;;
5688;SDS011;2869;50.432;8.680;2023-04-24T12:46:56;2.20;;;2.10;;
5688;SDS011;2869;50.432;8.680;2023-04-24T12:49:23;2.50;;;2.30;;
5688;SDS011;2869;50.432;8.680;2023-04-24T12:51:50;3.80;;;2.00;;
5688;SDS011;2869;50.432;8.680;2023-04-24T12:54:16;4.90;;;2.17;;
5688;SDS011;2869;50.432;8.680;2023-04-24T12:56:44;2.83;;;2.03;;
5688;SDS011;2869;50.432;8.680;2023-04-24T12:59:10;2.50;;;2.00;;
5688;SDS011;2869;50.432;8.680;2023-04-24T13:01:38;2.57;;;2.37;;
5688;SDS011;2869;50.432;8.680;2023-04-24T13:04:05;2.40;;;2.30;;
5688;SDS011;2869;50.432;8.680;2023-04-24T13:06:32;2.43;;;2.30;;
5688;SDS011;2869;50.432;8.680;2023-04-24T13:08:59;3.30;;;2.80;;
5688;SDS011;2869;50.432;8.680;2023-04-24T13:11:25;3.63;;;3.07;;
5688;SDS011;2869;50.432;8.680;2023-04-24T13:13:52;2.70;;;2.50;;
5688;SDS011;2869;50.432;8.680;2023-04-24T13:16:19;3.03;;;2.80;;
5688;SDS011;2869;50.432;8.680;2023-04-24T13:18:47;3.00;;;2.80;;
5688;SDS011;2869;50.432;8.680;2023-04-24T13:21:13;2.50;;;2.30;;
5688;SDS011;2869;50.432;8.680;2023-04-24T13:23:40;2.67;;;2.47;;
5688;SDS011;2869;50.432;8.680;2023-04-24T13:26:07;2.93;;;2.60;;
5688;SDS011;2869;50.432;8.680;2023-04-24T13:28:34;2.57;;;2.37;;
5688;SDS011;2869;50.432;8.680;2023-04-24T13:31:00;2.40;;;2.30;;
5688;SDS011;2869;50.432;8.680;2023-04-24T13:33:27;3.50;;;2.90;;
5688;SDS011;2869;50.432;8.680;2023-04-24T13:35:55;3.20;;;3.00;;
5688;SDS011;2869;50.432;8.680;2023-04-24T13:38:22;3.47;;;3.00;;
5688;SDS011;2869;50.432;8.680;2023-04-24T13:40:48;3.60;;;3.30;;
5688;SDS011;2869;50.432;8.680;2023-04-24T13:43:15;4.37;;;4.00;;
5688;SDS011;2869;50.432;8.680;2023-04-24T13:45:42;4.30;;;3.70;;
5688;SDS011;2869;50.432;8.680;2023-04-24T13:48:09;4.60;;;3.50;;
5688;SDS011;2869;50.432;8.680;2023-04-24T13:50:35;4.30;;;3.50;;
5688;SDS011;2869;50.432;8.680;2023-04-24T13:53:03;3.30;;;3.10;;
5688;SDS011;2869;50.432;8.680;2023-04-24T13:55:30;4.13;;;3.83;;
5688;SDS011;2869;50.432;8.680;2023-04-24T13:57:56;4.33;;;3.80;;
5688;SDS011;2869;50.432;8.680;2023-04-24T14:00:23;5.67;;;4.10;;
5688;SDS011;2869;50.432;8.680;2023-04-24T14:02:50;6.73;;;3.90;;
5688;SDS011;2869;50.432;8.680;2023-04-24T14:05:17;5.87;;;4.07;;
5688;SDS011;2869;50.432;8.680;2023-04-24T14:07:43;4.93;;;4.40;;
5688;SDS011;2869;50.432;8.680;2023-04-24T14:10:11;4.87;;;3.97;;
5688;SDS011;2869;50.432;8.680;2023-04-24T14:12:38;4.43;;;3.50;;
5688;SDS011;2869;50.432;8.680;2023-04-24T14:15:05;7.50;;;4.13;;
5688;SDS011;2869;50.432;8.680;2023-04-24T14:17:33;4.97;;;4.50;;
5688;SDS011;2869;50.432;8.680;2023-04-24T14:20:00;4.87;;;4.00;;
5688;SDS011;2869;50.432;8.680;2023-04-24T14:22:28;7.60;;;4.50;;
5688;SDS011;2869;50.432;8.680;2023-04-24T14:24:55;6.37;;;4.00;;
5688;SDS011;2869;50.432;8.680;2023-04-24T14:27:24;5.60;;;4.13;;
5688;SDS011;2869;50.432;8.680;2023-04-24T14:29:51;6.40;;;4.10;;
5688;SDS011;2869;50.432;8.680;2023-04-24T14:32:18;7.30;;;4.23;;
5688;SDS011;2869;50.432;8.680;2023-04-24T14:34:44;4.93;;;4.20;;
5688;SDS011;2869;50.432;8.680;2023-04-24T14:37:11;7.73;;;4.00;;
5688;SDS011;2869;50.432;8.680;2023-04-24T14:39:38;8.90;;;4.77;;
5688;SDS011;2869;50.432;8.680;2023-04-24T14:42:04;6.63;;;4.50;;
5688;SDS011;2869;50.432;8.680;2023-04-24T14:44:32;7.30;;;4.07;;
5688;SDS011;2869;50.432;8.680;2023-04-24T14:46:59;5.10;;;4.30;;
5688;SDS011;2869;50.432;8.680;2023-04-24T14:49:26;6.93;;;4.37;;
5688;SDS011;2869;50.432;8.680;2023-04-24T14:51:52;5.30;;;4.70;;
5688;SDS011;2869;50.432;8.680;2023-04-24T14:54:19;7.77;;;4.37;;
5688;SDS011;2869;50.432;8.680;2023-04-24T14:56:48;8.63;;;4.43;;
5688;SDS011;2869;50.432;8.680;2023-04-24T14:59:15;3.90;;;3.60;;
5688;SDS011;2869;50.432;8.680;2023-04-24T15:01:43;6.40;;;5.00;;
5688;SDS011;2869;50.432;8.680;2023-04-24T15:04:10;9.27;;;5.30;;
5688;SDS011;2869;50.432;8.680;2023-04-24T15:06:36;7.37;;;4.60;;
5688;SDS011;2869;50.432;8.680;2023-04-24T15:09:03;7.97;;;3.93;;
5688;SDS011;2869;50.432;8.680;2023-04-24T15:11:29;8.10;;;4.50;;
5688;SDS011;2869;50.432;8.680;2023-04-24T15:13:56;7.07;;;4.27;;
5688;SDS011;2869;50.432;8.680;2023-04-24T15:16:23;6.60;;;4.67;;